createdAt,value
2023-04-24T00:00:27.262Z,99082.78
2023-04-24T00:05:30.636Z,99064.13
2023-04-24T00:10:33.394Z,99040.88
2023-04-24T00:15:37.544Z,99040.88
2023-04-24T00:20:42.780Z,99044.63
2023-04-24T00:25:45.623Z,99037.63
2023-04-24T00:30:49.796Z,99030.84
2023-04-24T00:35:52.589Z,99044.94
2023-04-24T00:40:56.012Z,99048.00
2023-04-24T00:46:02.693Z,99047.31
2023-04-24T00:51:05.609Z,99055.03
2023-04-24T00:56:08.401Z,99046.25
2023-04-24T01:01:12.808Z,99052.66
2023-04-24T01:06:15.817Z,99059.78
2023-04-24T01:11:19.444Z,99053.91
2023-04-24T01:16:23.638Z,99056.75
2023-04-24T01:21:28.667Z,99050.81
2023-04-24T01:26:32.960Z,99060.88
2023-04-24T01:31:35.756Z,99069.44
2023-04-24T01:36:38.546Z,99059.97
2023-04-24T01:41:42.972Z,99060.81
2023-04-24T01:46:45.934Z,99051.84
2023-04-24T01:51:48.762Z,99051.31
2023-04-24T01:56:53.025Z,99050.63
2023-04-24T02:01:55.791Z,99054.59
2023-04-24T02:06:58.591Z,99044.19
2023-04-24T02:12:02.825Z,99050.88
2023-04-24T02:17:05.820Z,99055.09
2023-04-24T02:22:08.578Z,99061.06
2023-04-24T02:27:12.684Z,99063.91
2023-04-24T02:32:16.586Z,99070.41
2023-04-24T02:37:19.860Z,99048.22
2023-04-24T02:42:24.011Z,99051.91
2023-04-24T02:47:27.516Z,99050.34
2023-04-24T02:52:30.316Z,99039.94
2023-04-24T02:57:34.498Z,99043.78
2023-04-24T03:02:37.482Z,99052.13
2023-04-24T03:07:40.304Z,99051.59
2023-04-24T03:12:44.430Z,99056.97
2023-04-24T03:17:47.230Z,99060.06
2023-04-24T03:22:50.030Z,99047.59
2023-04-24T03:27:55.849Z,99042.38
2023-04-24T03:33:10.834Z,99048.50
2023-04-24T03:38:19.938Z,99056.97
2023-04-24T03:43:35.477Z,99053.19
2023-04-24T03:48:38.760Z,99054.34
2023-04-24T03:53:42.563Z,99066.91
2023-04-24T03:58:48.636Z,99074.13
2023-04-24T04:03:52.255Z,99066.50
2023-04-24T04:08:58.342Z,99064.13
2023-04-24T04:14:03.075Z,99061.19
2023-04-24T04:19:06.408Z,99072.94
2023-04-24T04:24:10.680Z,99065.88
2023-04-24T04:29:19.760Z,99055.44
2023-04-24T04:34:24.604Z,99065.34
2023-04-24T04:39:29.103Z,99063.34
2023-04-24T04:44:42.445Z,99066.88
2023-04-24T04:49:49.802Z,99070.72
2023-04-24T04:54:56.402Z,99079.44
2023-04-24T05:00:12.689Z,99081.81
2023-04-24T05:05:23.790Z,99080.81
2023-04-24T05:10:26.758Z,99079.69
2023-04-24T05:15:33.237Z,99075.03
2023-04-24T05:20:37.579Z,99079.91
2023-04-24T05:25:41.399Z,99085.84
2023-04-24T05:30:49.305Z,99080.59
2023-04-24T05:35:53.404Z,99084.47
2023-04-24T05:40:57.389Z,99081.38
2023-04-24T05:46:01.582Z,99097.00
2023-04-24T05:51:04.458Z,99101.94
2023-04-24T05:56:07.677Z,99105.03
2023-04-24T06:01:13.315Z,99109.94
2023-04-24T06:06:16.985Z,99118.53
2023-04-24T06:11:20.543Z,99124.00
2023-04-24T06:16:25.404Z,99109.09
2023-04-24T06:21:35.189Z,99106.81
2023-04-24T06:26:38.444Z,99110.94
2023-04-24T06:31:47.610Z,99112.38
2023-04-24T06:36:50.632Z,99123.72
2023-04-24T06:41:53.509Z,99119.88
2023-04-24T06:46:58.258Z,99107.69
2023-04-24T06:52:01.342Z,99100.50
2023-04-24T06:57:05.920Z,99090.63
2023-04-24T07:02:23.488Z,99101.31
2023-04-24T07:07:28.601Z,99094.47
2023-04-24T07:12:31.487Z,99099.66
2023-04-24T07:17:35.927Z,99099.00
2023-04-24T07:22:39.545Z,99102.06
2023-04-24T07:27:42.388Z,99095.63
2023-04-24T07:32:46.639Z,99102.06
2023-04-24T07:37:54.816Z,99098.97
2023-04-24T07:43:02.015Z,99103.03
2023-04-24T07:48:07.688Z,99101.91
2023-04-24T07:53:14.608Z,99107.47
2023-04-24T07:58:18.358Z,99108.19
2023-04-24T08:03:25.974Z,99104.19
2023-04-24T08:08:30.647Z,99108.97
2023-04-24T08:13:33.570Z,99119.38
2023-04-24T08:18:41.478Z,99117.22
2023-04-24T08:23:47.271Z,99115.25
2023-04-24T08:28:53.530Z,99124.16
2023-04-24T08:34:00.573Z,99114.31
2023-04-24T08:39:05.190Z,99121.03
2023-04-24T08:44:10.551Z,99113.34
2023-04-24T08:49:17.200Z,99120.28
2023-04-24T08:54:20.117Z,99118.06
2023-04-24T08:59:23.295Z,99133.72
2023-04-24T09:04:27.880Z,99133.59
2023-04-24T09:09:31.913Z,99138.38
2023-04-24T09:14:34.749Z,99144.53
2023-04-24T09:19:38.938Z,99149.03
2023-04-24T09:24:41.798Z,99146.22
2023-04-24T09:29:55.696Z,99150.56
2023-04-24T09:35:10.331Z,99154.03
2023-04-24T09:40:14.576Z,99151.00
2023-04-24T09:45:17.554Z,99152.28
2023-04-24T09:50:21.712Z,99142.75
2023-04-24T09:55:25.337Z,99133.31
2023-04-24T10:00:29.281Z,99136.69
2023-04-24T10:05:34.474Z,99134.56
2023-04-24T10:10:40.470Z,99134.03
2023-04-24T10:15:43.602Z,99113.97
2023-04-24T10:20:47.845Z,99135.38
2023-04-24T10:25:50.617Z,99149.31
2023-04-24T10:30:55.760Z,99135.47
2023-04-24T10:36:00.406Z,99144.38
2023-04-24T10:41:10.186Z,99163.00
2023-04-24T10:46:13.312Z,99157.13
2023-04-24T10:51:17.576Z,99155.69
2023-04-24T10:56:20.563Z,99156.06
2023-04-24T11:01:27.198Z,99167.47
2023-04-24T11:06:36.648Z,99174.22
2023-04-24T11:11:41.077Z,99171.63
2023-04-24T11:16:53.708Z,99170.47
2023-04-24T11:22:11.290Z,99172.44
2023-04-24T11:27:16.520Z,99182.19
2023-04-24T11:32:32.968Z,99183.97
2023-04-24T11:37:49.465Z,99193.13
2023-04-24T11:43:03.068Z,99189.47
2023-04-24T11:48:07.257Z,99192.16
2023-04-24T11:53:15.090Z,99196.41
2023-04-24T11:58:24.068Z,99204.38
2023-04-24T12:03:32.710Z,99191.69
2023-04-24T12:08:50.061Z,99203.97
2023-04-24T12:13:59.788Z,99204.59
2023-04-24T12:19:03.875Z,99179.75
2023-04-24T12:24:09.683Z,99203.31
2023-04-24T12:29:13.238Z,99204.94
2023-04-24T12:34:22.274Z,99206.06
2023-04-24T12:39:27.723Z,99204.53
2023-04-24T12:44:33.178Z,99205.63
2023-04-24T12:49:44.889Z,99205.16
2023-04-24T12:54:52.734Z,99203.38
2023-04-24T12:59:59.412Z,99193.00
2023-04-24T13:05:13.061Z,99183.88
2023-04-24T13:10:25.509Z,99188.88
2023-04-24T13:15:32.359Z,99191.63
2023-04-24T13:20:37.532Z,99186.50
2023-04-24T13:25:43.522Z,99185.94
2023-04-24T13:30:55.451Z,99187.56
2023-04-24T13:35:59.924Z,99169.13
2023-04-24T13:41:05.285Z,99176.03
2023-04-24T13:46:10.038Z,99171.22
2023-04-24T13:51:21.744Z,99171.50
2023-04-24T13:56:28.909Z,99171.28
2023-04-24T14:01:47.797Z,99163.16
2023-04-24T14:06:57.252Z,99166.59
2023-04-24T14:12:02.004Z,99174.13
2023-04-24T14:17:04.833Z,99164.13
2023-04-24T14:22:08.007Z,99174.41
2023-04-24T14:27:12.278Z,99174.19
2023-04-24T14:32:15.912Z,99167.56
2023-04-24T14:37:18.770Z,99179.00
2023-04-24T14:42:22.893Z,99184.28
2023-04-24T14:47:26.970Z,99189.22
2023-04-24T14:52:29.790Z,99198.31
2023-04-24T14:57:33.983Z,99208.56
2023-04-24T15:02:40.932Z,99209.25
2023-04-24T15:07:44.172Z,99212.66
2023-04-24T15:12:48.263Z,99223.59
2023-04-24T15:17:51.535Z,99242.72
2023-04-24T15:22:56.582Z,99244.31
2023-04-24T15:28:09.268Z,99252.84
2023-04-24T15:33:14.729Z,99258.44
2023-04-24T15:38:22.393Z,99271.44
2023-04-24T15:43:29.105Z,99277.41
2023-04-24T15:48:32.666Z,99275.94
2023-04-24T15:53:40.491Z,99288.69
2023-04-24T15:58:47.372Z,99286.88
2023-04-24T16:03:59.209Z,99283.31
2023-04-24T16:09:09.656Z,99289.03
2023-04-24T16:14:22.909Z,99277.53
2023-04-24T16:19:37.434Z,99289.50
2023-04-24T16:24:47.595Z,99301.72
2023-04-24T16:29:58.174Z,99302.47
2023-04-24T16:35:07.607Z,99306.75
2023-04-24T16:40:26.943Z,99323.81
2023-04-24T16:45:31.283Z,99340.84
2023-04-24T16:50:34.133Z,99350.78
2023-04-24T16:55:36.958Z,99345.31
2023-04-24T17:00:41.222Z,99336.44
2023-04-24T17:05:44.888Z,99344.09
2023-04-24T17:10:55.830Z,99355.72
2023-04-24T17:16:10.987Z,99372.78
2023-04-24T17:21:20.892Z,99376.25
2023-04-24T17:26:26.317Z,99385.16
2023-04-24T17:31:30.589Z,99395.44
2023-04-24T17:36:33.549Z,99402.66
2023-04-24T17:41:36.748Z,99403.16
2023-04-24T17:46:40.957Z,99418.72
2023-04-24T17:51:43.762Z,99415.50
2023-04-24T17:56:46.501Z,99418.09
2023-04-24T18:01:50.772Z,99425.41
2023-04-24T18:06:54.718Z,99429.78
2023-04-24T18:12:05.593Z,99433.06
2023-04-24T18:17:13.356Z,99445.00
2023-04-24T18:22:20.249Z,99448.78
2023-04-24T18:27:34.083Z,99457.75
2023-04-24T18:32:40.214Z,99463.28
2023-04-24T18:37:42.982Z,99475.19
2023-04-24T18:42:45.947Z,99467.97
2023-04-24T18:47:50.246Z,99472.50
2023-04-24T18:52:53.150Z,99488.09
2023-04-24T18:57:56.011Z,99494.31
2023-04-24T19:03:00.376Z,99496.84
2023-04-24T19:08:03.331Z,99501.53
2023-04-24T19:13:06.271Z,99509.78
2023-04-24T19:18:10.676Z,99515.84
2023-04-24T19:23:13.539Z,99540.06
2023-04-24T19:28:16.294Z,99539.50
2023-04-24T19:33:20.468Z,99534.41
2023-04-24T19:38:23.320Z,99537.09
2023-04-24T19:43:26.385Z,99536.69
2023-04-24T19:48:32.608Z,99538.63
2023-04-24T19:53:43.865Z,99537.91
2023-04-24T19:58:51.809Z,99529.56
2023-04-24T20:03:57.729Z,99535.63
2023-04-24T20:09:00.743Z,99536.78
2023-04-24T20:14:03.722Z,99529.81
2023-04-24T20:19:08.251Z,99534.25
2023-04-24T20:24:11.045Z,99538.72
2023-04-24T20:29:13.868Z,99535.47
2023-04-24T20:34:19.926Z,99536.16
2023-04-24T20:39:24.418Z,99531.41
2023-04-24T20:44:27.312Z,99540.31
2023-04-24T20:49:34.529Z,99534.47
2023-04-24T20:54:43.685Z,99535.63
2023-04-24T20:59:48.470Z,99533.63
2023-04-24T21:04:52.827Z,99541.41
2023-04-24T21:09:55.988Z,99548.78
2023-04-24T21:15:03.970Z,99543.50
2023-04-24T21:20:12.048Z,99534.19
2023-04-24T21:25:15.698Z,99540.69
2023-04-24T21:30:19.202Z,99532.34
2023-04-24T21:35:23.814Z,99533.72
2023-04-24T21:40:26.572Z,99531.50
2023-04-24T21:45:29.397Z,99531.63
2023-04-24T21:50:33.554Z,99533.34
2023-04-24T21:55:36.352Z,99541.69
2023-04-24T22:00:45.905Z,99531.63
2023-04-24T22:05:50.196Z,99531.19
2023-04-24T22:10:53.402Z,99527.09
2023-04-24T22:15:56.418Z,99522.88
2023-04-24T22:21:01.083Z,99524.03
2023-04-24T22:26:03.978Z,99526.03
2023-04-24T22:31:07.414Z,99530.13
2023-04-24T22:36:11.663Z,99524.38
2023-04-24T22:41:14.781Z,99523.56
2023-04-24T22:46:17.632Z,99528.38
2023-04-24T22:51:22.787Z,99516.66
2023-04-24T22:56:26.011Z,99511.06
2023-04-24T23:01:28.946Z,99519.50
2023-04-24T23:06:33.469Z,99528.59
2023-04-24T23:11:36.282Z,99530.88
2023-04-24T23:16:40.858Z,99525.09
2023-04-24T23:21:45.006Z,99524.69
2023-04-24T23:26:47.774Z,99525.13
2023-04-24T23:31:50.971Z,99517.50
2023-04-24T23:36:55.357Z,99514.41
2023-04-24T23:41:59.571Z,99516.81
2023-04-24T23:47:02.501Z,99511.03
2023-04-24T23:52:06.753Z,99514.97
2023-04-24T23:57:09.620Z,99511.06
